sensor_id;sensor_type;location;lat;lon;timestamp;temperature;humidity
39889;DHT22;25563;50.844;4.308;2022-08-19T00:00:08;22.60;92.50
39889;DHT22;25563;50.844;4.308;2022-08-19T00:02:35;22.60;92.40
39889;DHT22;25563;50.844;4.308;2022-08-19T00:05:01;22.30;92.50
39889;DHT22;25563;50.844;4.308;2022-08-19T00:07:27;22.50;92.80
39889;DHT22;25563;50.844;4.308;2022-08-19T00:09:53;22.50;92.90
39889;DHT22;25563;50.844;4.308;2022-08-19T00:12:19;22.50;93.10
39889;DHT22;25563;50.844;4.308;2022-08-19T00:14:45;22.50;93.50
39889;DHT22;25563;50.844;4.308;2022-08-19T00:17:12;22.50;93.80
39889;DHT22;25563;50.844;4.308;2022-08-19T00:19:38;22.50;93.90
39889;DHT22;25563;50.844;4.308;2022-08-19T00:22:07;22.40;94.10
39889;DHT22;25563;50.844;4.308;2022-08-19T00:24:34;22.40;94.30
39889;DHT22;25563;50.844;4.308;2022-08-19T00:27:01;22.30;94.60
39889;DHT22;25563;50.844;4.308;2022-08-19T00:29:27;22.20;95.00
39889;DHT22;25563;50.844;4.308;2022-08-19T00:31:54;22.20;95.20
39889;DHT22;25563;50.844;4.308;2022-08-19T00:34:22;22.30;95.30
39889;DHT22;25563;50.844;4.308;2022-08-19T00:36:48;22.30;95.40
39889;DHT22;25563;50.844;4.308;2022-08-19T00:39:15;22.30;95.50
39889;DHT22;25563;50.844;4.308;2022-08-19T00:41:42;22.30;95.60
39889;DHT22;25563;50.844;4.308;2022-08-19T00:44:22;22.30;95.60
39889;DHT22;25563;50.844;4.308;2022-08-19T00:46:48;22.30;95.70
39889;DHT22;25563;50.844;4.308;2022-08-19T00:52:28;22.30;95.80
39889;DHT22;25563;50.844;4.308;2022-08-19T00:54:55;22.30;96.00
39889;DHT22;25563;50.844;4.308;2022-08-19T00:57:26;22.40;96.10
39889;DHT22;25563;50.844;4.308;2022-08-19T00:59:55;22.30;96.20
39889;DHT22;25563;50.844;4.308;2022-08-19T01:02:21;22.30;96.30
39889;DHT22;25563;50.844;4.308;2022-08-19T01:04:47;22.30;96.40
39889;DHT22;25563;50.844;4.308;2022-08-19T01:07:13;22.20;96.50
39889;DHT22;25563;50.844;4.308;2022-08-19T01:09:39;22.20;96.50
39889;DHT22;25563;50.844;4.308;2022-08-19T01:12:06;22.20;96.60
39889;DHT22;25563;50.844;4.308;2022-08-19T01:14:33;22.10;96.80
39889;DHT22;25563;50.844;4.308;2022-08-19T01:16:59;22.00;96.80
39889;DHT22;25563;50.844;4.308;2022-08-19T01:19:37;21.90;97.10
39889;DHT22;25563;50.844;4.308;2022-08-19T01:22:34;21.90;97.20
39889;DHT22;25563;50.844;4.308;2022-08-19T01:25:02;21.80;97.40
39889;DHT22;25563;50.844;4.308;2022-08-19T01:27:40;21.80;97.50
39889;DHT22;25563;50.844;4.308;2022-08-19T01:30:09;21.70;97.50
39889;DHT22;25563;50.844;4.308;2022-08-19T01:32:35;21.70;97.70
39889;DHT22;25563;50.844;4.308;2022-08-19T01:35:03;21.70;97.50
39889;DHT22;25563;50.844;4.308;2022-08-19T01:37:30;21.60;97.50
39889;DHT22;25563;50.844;4.308;2022-08-19T01:39:56;21.50;97.40
39889;DHT22;25563;50.844;4.308;2022-08-19T01:42:32;21.40;97.50
39889;DHT22;25563;50.844;4.308;2022-08-19T01:45:04;21.40;97.60
39889;DHT22;25563;50.844;4.308;2022-08-19T01:47:31;21.30;97.60
39889;DHT22;25563;50.844;4.308;2022-08-19T01:49:58;21.30;97.70
39889;DHT22;25563;50.844;4.308;2022-08-19T01:52:23;21.20;97.80
39889;DHT22;25563;50.844;4.308;2022-08-19T01:54:49;21.20;97.90
39889;DHT22;25563;50.844;4.308;2022-08-19T01:57:15;21.20;97.90
39889;DHT22;25563;50.844;4.308;2022-08-19T01:59:42;21.10;97.50
39889;DHT22;25563;50.844;4.308;2022-08-19T02:02:11;21.00;97.50
39889;DHT22;25563;50.844;4.308;2022-08-19T02:04:40;21.00;97.40
39889;DHT22;25563;50.844;4.308;2022-08-19T02:07:07;20.90;97.50
39889;DHT22;25563;50.844;4.308;2022-08-19T02:09:34;20.90;97.40
39889;DHT22;25563;50.844;4.308;2022-08-19T02:12:00;20.80;97.20
39889;DHT22;25563;50.844;4.308;2022-08-19T02:14:26;20.80;97.30
39889;DHT22;25563;50.844;4.308;2022-08-19T02:16:52;20.80;97.50
39889;DHT22;25563;50.844;4.308;2022-08-19T02:19:18;20.80;97.70
39889;DHT22;25563;50.844;4.308;2022-08-19T02:21:44;20.80;98.00
39889;DHT22;25563;50.844;4.308;2022-08-19T02:24:10;20.80;98.20
39889;DHT22;25563;50.844;4.308;2022-08-19T02:26:36;20.80;98.30
39889;DHT22;25563;50.844;4.308;2022-08-19T02:29:02;20.70;98.40
39889;DHT22;25563;50.844;4.308;2022-08-19T02:31:28;20.60;98.60
39889;DHT22;25563;50.844;4.308;2022-08-19T02:33:54;20.60;98.60
39889;DHT22;25563;50.844;4.308;2022-08-19T02:36:31;20.60;98.60
39889;DHT22;25563;50.844;4.308;2022-08-19T02:39:04;20.60;98.60
39889;DHT22;25563;50.844;4.308;2022-08-19T02:41:32;20.50;98.70
39889;DHT22;25563;50.844;4.308;2022-08-19T02:44:01;20.50;98.60
39889;DHT22;25563;50.844;4.308;2022-08-19T02:46:30;20.50;98.60
39889;DHT22;25563;50.844;4.308;2022-08-19T02:48:59;20.50;98.60
39889;DHT22;25563;50.844;4.308;2022-08-19T02:51:32;20.40;98.70
39889;DHT22;25563;50.844;4.308;2022-08-19T02:53:59;20.30;98.80
39889;DHT22;25563;50.844;4.308;2022-08-19T02:56:26;20.30;98.80
39889;DHT22;25563;50.844;4.308;2022-08-19T02:58:53;20.20;98.80
39889;DHT22;25563;50.844;4.308;2022-08-19T03:01:30;20.20;99.00
39889;DHT22;25563;50.844;4.308;2022-08-19T03:03:58;20.20;99.20
39889;DHT22;25563;50.844;4.308;2022-08-19T03:06:26;20.10;99.20
39889;DHT22;25563;50.844;4.308;2022-08-19T03:08:52;20.10;99.20
39889;DHT22;25563;50.844;4.308;2022-08-19T03:11:25;20.10;99.10
39889;DHT22;25563;50.844;4.308;2022-08-19T03:13:51;20.10;99.00
39889;DHT22;25563;50.844;4.308;2022-08-19T03:16:20;20.10;99.10
39889;DHT22;25563;50.844;4.308;2022-08-19T03:18:47;20.10;99.10
39889;DHT22;25563;50.844;4.308;2022-08-19T03:21:33;20.10;99.10
39889;DHT22;25563;50.844;4.308;2022-08-19T03:24:02;20.10;99.00
39889;DHT22;25563;50.844;4.308;2022-08-19T03:26:29;20.00;99.00
39889;DHT22;25563;50.844;4.308;2022-08-19T03:28:56;20.10;98.90
39889;DHT22;25563;50.844;4.308;2022-08-19T03:31:22;20.10;98.90
39889;DHT22;25563;50.844;4.308;2022-08-19T03:33:49;20.00;98.80
39889;DHT22;25563;50.844;4.308;2022-08-19T03:36:23;20.00;99.00
39889;DHT22;25563;50.844;4.308;2022-08-19T03:38:56;20.00;99.00
39889;DHT22;25563;50.844;4.308;2022-08-19T03:41:28;19.60;98.80
39889;DHT22;25563;50.844;4.308;2022-08-19T03:43:58;20.00;98.80
39889;DHT22;25563;50.844;4.308;2022-08-19T03:46:27;19.90;99.00
39889;DHT22;25563;50.844;4.308;2022-08-19T03:48:56;19.90;99.00
39889;DHT22;25563;50.844;4.308;2022-08-19T03:51:25;19.90;99.00
39889;DHT22;25563;50.844;4.308;2022-08-19T03:53:51;19.80;99.10
39889;DHT22;25563;50.844;4.308;2022-08-19T03:56:18;19.70;99.20
39889;DHT22;25563;50.844;4.308;2022-08-19T03:58:44;19.70;99.30
39889;DHT22;25563;50.844;4.308;2022-08-19T04:01:13;19.70;99.30
39889;DHT22;25563;50.844;4.308;2022-08-19T04:03:39;19.60;99.40
39889;DHT22;25563;50.844;4.308;2022-08-19T04:08:47;19.60;99.50
39889;DHT22;25563;50.844;4.308;2022-08-19T04:11:17;19.50;99.50
39889;DHT22;25563;50.844;4.308;2022-08-19T04:13:43;19.50;99.90
39889;DHT22;25563;50.844;4.308;2022-08-19T04:16:11;19.50;99.70
39889;DHT22;25563;50.844;4.308;2022-08-19T04:18:38;19.50;99.80
39889;DHT22;25563;50.844;4.308;2022-08-19T04:21:04;19.50;99.80
39889;DHT22;25563;50.844;4.308;2022-08-19T04:23:32;19.40;99.80
39889;DHT22;25563;50.844;4.308;2022-08-19T04:25:59;19.40;99.90
39889;DHT22;25563;50.844;4.308;2022-08-19T04:28:25;19.40;99.90
39889;DHT22;25563;50.844;4.308;2022-08-19T04:30:54;19.40;99.90
39889;DHT22;25563;50.844;4.308;2022-08-19T04:33:22;19.40;99.90
39889;DHT22;25563;50.844;4.308;2022-08-19T04:35:50;19.30;99.90
39889;DHT22;25563;50.844;4.308;2022-08-19T04:38:18;19.30;99.90
39889;DHT22;25563;50.844;4.308;2022-08-19T04:40:49;19.30;99.90
39889;DHT22;25563;50.844;4.308;2022-08-19T04:43:36;19.20;99.90
39889;DHT22;25563;50.844;4.308;2022-08-19T04:46:10;19.10;99.90
39889;DHT22;25563;50.844;4.308;2022-08-19T04:48:40;19.00;99.90
39889;DHT22;25563;50.844;4.308;2022-08-19T04:51:09;19.00;99.90
39889;DHT22;25563;50.844;4.308;2022-08-19T04:53:40;18.50;99.90
39889;DHT22;25563;50.844;4.308;2022-08-19T04:56:14;19.00;99.90
39889;DHT22;25563;50.844;4.308;2022-08-19T04:58:42;20.10;99.90
39889;DHT22;25563;50.844;4.308;2022-08-19T05:01:17;18.90;99.90
39889;DHT22;25563;50.844;4.308;2022-08-19T05:03:43;18.90;99.90
39889;DHT22;25563;50.844;4.308;2022-08-19T05:06:11;18.90;99.90
39889;DHT22;25563;50.844;4.308;2022-08-19T05:08:39;18.90;99.90
39889;DHT22;25563;50.844;4.308;2022-08-19T05:11:24;18.90;99.90
39889;DHT22;25563;50.844;4.308;2022-08-19T05:13:51;19.00;99.90
39889;DHT22;25563;50.844;4.308;2022-08-19T05:16:19;19.00;99.90
39889;DHT22;25563;50.844;4.308;2022-08-19T05:18:45;19.10;99.90
39889;DHT22;25563;50.844;4.308;2022-08-19T05:21:30;19.10;99.90
39889;DHT22;25563;50.844;4.308;2022-08-19T05:24:15;19.10;99.90
39889;DHT22;25563;50.844;4.308;2022-08-19T05:26:47;19.10;99.90
39889;DHT22;25563;50.844;4.308;2022-08-19T05:29:17;19.10;99.90
39889;DHT22;25563;50.844;4.308;2022-08-19T05:31:43;19.00;99.90
39889;DHT22;25563;50.844;4.308;2022-08-19T05:34:10;19.00;99.90
39889;DHT22;25563;50.844;4.308;2022-08-19T05:36:41;19.10;99.90
39889;DHT22;25563;50.844;4.308;2022-08-19T05:39:10;19.10;99.90
39889;DHT22;25563;50.844;4.308;2022-08-19T05:41:40;19.10;99.90
39889;DHT22;25563;50.844;4.308;2022-08-19T05:44:06;19.20;99.90
39889;DHT22;25563;50.844;4.308;2022-08-19T05:46:34;19.30;99.90
39889;DHT22;25563;50.844;4.308;2022-08-19T05:49:03;19.40;99.90
39889;DHT22;25563;50.844;4.308;2022-08-19T05:51:29;19.60;99.90
39889;DHT22;25563;50.844;4.308;2022-08-19T05:53:55;19.70;99.90
39889;DHT22;25563;50.844;4.308;2022-08-19T05:56:21;19.80;99.80
39889;DHT22;25563;50.844;4.308;2022-08-19T05:58:47;19.80;99.60
39889;DHT22;25563;50.844;4.308;2022-08-19T06:01:15;19.90;99.60
39889;DHT22;25563;50.844;4.308;2022-08-19T06:03:42;20.00;99.50
39889;DHT22;25563;50.844;4.308;2022-08-19T06:06:10;20.10;99.40
39889;DHT22;25563;50.844;4.308;2022-08-19T06:08:37;19.30;99.20
39889;DHT22;25563;50.844;4.308;2022-08-19T06:11:34;20.10;99.30
39889;DHT22;25563;50.844;4.308;2022-08-19T06:14:11;20.20;99.20
39889;DHT22;25563;50.844;4.308;2022-08-19T06:16:39;20.40;98.90
39889;DHT22;25563;50.844;4.308;2022-08-19T06:19:07;20.50;98.40
39889;DHT22;25563;50.844;4.308;2022-08-19T06:21:34;20.60;98.30
39889;DHT22;25563;50.844;4.308;2022-08-19T06:24:04;20.60;98.40
39889;DHT22;25563;50.844;4.308;2022-08-19T06:26:32;20.50;98.40
39889;DHT22;25563;50.844;4.308;2022-08-19T06:28:59;20.50;98.50
39889;DHT22;25563;50.844;4.308;2022-08-19T06:31:29;20.20;98.40
39889;DHT22;25563;50.844;4.308;2022-08-19T06:33:56;20.70;98.50
39889;DHT22;25563;50.844;4.308;2022-08-19T06:36:27;20.60;98.60
39889;DHT22;25563;50.844;4.308;2022-08-19T06:38:58;20.70;98.50
39889;DHT22;25563;50.844;4.308;2022-08-19T06:41:26;20.80;98.70
39889;DHT22;25563;50.844;4.308;2022-08-19T06:43:54;20.80;98.80
39889;DHT22;25563;50.844;4.308;2022-08-19T06:46:20;20.90;98.50
39889;DHT22;25563;50.844;4.308;2022-08-19T06:48:47;21.00;98.40
39889;DHT22;25563;50.844;4.308;2022-08-19T06:51:15;20.90;98.40
39889;DHT22;25563;50.844;4.308;2022-08-19T06:53:44;21.00;98.50
39889;DHT22;25563;50.844;4.308;2022-08-19T06:56:13;21.20;98.40
39889;DHT22;25563;50.844;4.308;2022-08-19T06:58:39;21.20;98.40
39889;DHT22;25563;50.844;4.308;2022-08-19T07:01:05;21.30;98.20
39889;DHT22;25563;50.844;4.308;2022-08-19T07:03:33;21.50;98.20
39889;DHT22;25563;50.844;4.308;2022-08-19T07:06:09;21.50;98.00
39889;DHT22;25563;50.844;4.308;2022-08-19T07:08:38;21.60;98.00
39889;DHT22;25563;50.844;4.308;2022-08-19T07:11:08;21.50;98.00
39889;DHT22;25563;50.844;4.308;2022-08-19T07:13:36;21.60;98.10
39889;DHT22;25563;50.844;4.308;2022-08-19T07:16:12;21.90;98.10
39889;DHT22;25563;50.844;4.308;2022-08-19T07:18:39;21.40;98.00
39889;DHT22;25563;50.844;4.308;2022-08-19T07:21:23;21.90;98.00
39889;DHT22;25563;50.844;4.308;2022-08-19T07:23:52;22.00;98.00
39889;DHT22;25563;50.844;4.308;2022-08-19T07:26:40;21.40;97.50
39889;DHT22;25563;50.844;4.308;2022-08-19T07:29:12;22.30;97.30
39889;DHT22;25563;50.844;4.308;2022-08-19T07:31:47;22.50;97.10
39889;DHT22;25563;50.844;4.308;2022-08-19T07:34:13;22.30;97.00
39889;DHT22;25563;50.844;4.308;2022-08-19T07:36:41;22.40;97.20
39889;DHT22;25563;50.844;4.308;2022-08-19T07:39:13;22.50;97.00
39889;DHT22;25563;50.844;4.308;2022-08-19T07:41:40;22.50;97.10
39889;DHT22;25563;50.844;4.308;2022-08-19T07:44:08;22.50;97.10
39889;DHT22;25563;50.844;4.308;2022-08-19T07:46:37;22.60;97.20
39889;DHT22;25563;50.844;4.308;2022-08-19T07:49:06;22.70;97.30
39889;DHT22;25563;50.844;4.308;2022-08-19T07:51:31;22.90;97.00
39889;DHT22;25563;50.844;4.308;2022-08-19T07:53:57;23.00;96.60
39889;DHT22;25563;50.844;4.308;2022-08-19T07:56:23;23.10;96.40
39889;DHT22;25563;50.844;4.308;2022-08-19T07:58:50;23.20;96.30
39889;DHT22;25563;50.844;4.308;2022-08-19T08:01:21;23.20;96.40
39889;DHT22;25563;50.844;4.308;2022-08-19T08:03:49;23.20;96.20
39889;DHT22;25563;50.844;4.308;2022-08-19T08:06:33;23.20;96.20
39889;DHT22;25563;50.844;4.308;2022-08-19T08:09:22;23.30;96.00
39889;DHT22;25563;50.844;4.308;2022-08-19T08:14:38;23.40;96.00
39889;DHT22;25563;50.844;4.308;2022-08-19T08:17:05;23.40;95.90
39889;DHT22;25563;50.844;4.308;2022-08-19T08:19:32;23.30;96.20
39889;DHT22;25563;50.844;4.308;2022-08-19T08:21:59;23.30;96.40
39889;DHT22;25563;50.844;4.308;2022-08-19T08:24:27;23.50;96.20
39889;DHT22;25563;50.844;4.308;2022-08-19T08:26:56;23.50;96.10
39889;DHT22;25563;50.844;4.308;2022-08-19T08:29:23;23.50;96.00
39889;DHT22;25563;50.844;4.308;2022-08-19T08:31:48;23.50;95.90
39889;DHT22;25563;50.844;4.308;2022-08-19T08:34:14;23.50;96.10
39889;DHT22;25563;50.844;4.308;2022-08-19T08:36:43;23.40;96.10
39889;DHT22;25563;50.844;4.308;2022-08-19T08:39:15;23.50;96.10
39889;DHT22;25563;50.844;4.308;2022-08-19T08:44:27;23.50;96.20
39889;DHT22;25563;50.844;4.308;2022-08-19T08:46:58;23.50;96.20
39889;DHT22;25563;50.844;4.308;2022-08-19T08:49:33;23.50;96.20
39889;DHT22;25563;50.844;4.308;2022-08-19T08:52:07;23.50;96.30
39889;DHT22;25563;50.844;4.308;2022-08-19T08:54:45;23.40;96.50
39889;DHT22;25563;50.844;4.308;2022-08-19T08:57:17;23.40;96.60
39889;DHT22;25563;50.844;4.308;2022-08-19T08:59:47;23.40;96.70
39889;DHT22;25563;50.844;4.308;2022-08-19T09:02:17;23.50;96.50
39889;DHT22;25563;50.844;4.308;2022-08-19T09:04:43;23.60;96.30
39889;DHT22;25563;50.844;4.308;2022-08-19T09:07:23;23.70;96.30
39889;DHT22;25563;50.844;4.308;2022-08-19T09:09:56;23.80;96.10
39889;DHT22;25563;50.844;4.308;2022-08-19T09:12:42;24.00;96.00
39889;DHT22;25563;50.844;4.308;2022-08-19T09:15:12;24.20;95.70
39889;DHT22;25563;50.844;4.308;2022-08-19T09:17:39;24.00;95.40
39889;DHT22;25563;50.844;4.308;2022-08-19T09:20:16;24.20;95.50
39889;DHT22;25563;50.844;4.308;2022-08-19T09:22:44;24.10;95.40
39889;DHT22;25563;50.844;4.308;2022-08-19T09:25:14;24.10;95.50
39889;DHT22;25563;50.844;4.308;2022-08-19T09:27:41;24.10;95.50
39889;DHT22;25563;50.844;4.308;2022-08-19T09:30:14;24.10;95.50
39889;DHT22;25563;50.844;4.308;2022-08-19T09:32:40;24.20;95.30
39889;DHT22;25563;50.844;4.308;2022-08-19T09:35:08;24.20;95.40
39889;DHT22;25563;50.844;4.308;2022-08-19T09:37:34;24.30;95.20
39889;DHT22;25563;50.844;4.308;2022-08-19T09:40:01;24.40;95.10
39889;DHT22;25563;50.844;4.308;2022-08-19T09:42:27;24.50;94.80
39889;DHT22;25563;50.844;4.308;2022-08-19T09:44:52;24.50;94.70
39889;DHT22;25563;50.844;4.308;2022-08-19T09:47:18;24.50;94.60
39889;DHT22;25563;50.844;4.308;2022-08-19T09:49:44;24.50;94.70
39889;DHT22;25563;50.844;4.308;2022-08-19T09:52:11;23.90;94.70
39889;DHT22;25563;50.844;4.308;2022-08-19T09:54:38;24.60;94.80
39889;DHT22;25563;50.844;4.308;2022-08-19T09:57:04;24.60;94.60
39889;DHT22;25563;50.844;4.308;2022-08-19T09:59:30;24.80;94.40
39889;DHT22;25563;50.844;4.308;2022-08-19T10:01:56;24.80;94.20
39889;DHT22;25563;50.844;4.308;2022-08-19T10:04:22;24.90;94.20
39889;DHT22;25563;50.844;4.308;2022-08-19T10:06:49;24.90;94.10
39889;DHT22;25563;50.844;4.308;2022-08-19T10:09:18;25.00;94.10
39889;DHT22;25563;50.844;4.308;2022-08-19T10:11:51;24.70;93.80
39889;DHT22;25563;50.844;4.308;2022-08-19T10:14:18;25.00;93.80
39889;DHT22;25563;50.844;4.308;2022-08-19T10:16:50;25.20;93.80
39889;DHT22;25563;50.844;4.308;2022-08-19T10:19:16;25.00;93.80
39889;DHT22;25563;50.844;4.308;2022-08-19T10:21:45;24.90;94.10
39889;DHT22;25563;50.844;4.308;2022-08-19T10:24:14;24.00;94.20
39889;DHT22;25563;50.844;4.308;2022-08-19T10:26:40;24.70;94.80
39889;DHT22;25563;50.844;4.308;2022-08-19T10:29:13;24.70;94.50
39889;DHT22;25563;50.844;4.308;2022-08-19T10:31:45;24.60;94.50
39889;DHT22;25563;50.844;4.308;2022-08-19T10:34:11;24.60;94.70
39889;DHT22;25563;50.844;4.308;2022-08-19T10:36:37;24.60;94.80
39889;DHT22;25563;50.844;4.308;2022-08-19T10:39:07;24.70;94.70
39889;DHT22;25563;50.844;4.308;2022-08-19T10:41:39;24.80;94.60
39889;DHT22;25563;50.844;4.308;2022-08-19T10:44:14;24.80;94.70
39889;DHT22;25563;50.844;4.308;2022-08-19T10:46:50;24.70;94.80
39889;DHT22;25563;50.844;4.308;2022-08-19T10:49:26;24.50;95.10
39889;DHT22;25563;50.844;4.308;2022-08-19T10:51:54;24.50;95.00
39889;DHT22;25563;50.844;4.308;2022-08-19T10:54:41;24.60;95.40
39889;DHT22;25563;50.844;4.308;2022-08-19T10:57:30;24.40;95.30
39889;DHT22;25563;50.844;4.308;2022-08-19T10:59:56;24.40;95.30
39889;DHT22;25563;50.844;4.308;2022-08-19T11:02:22;24.40;95.50
39889;DHT22;25563;50.844;4.308;2022-08-19T11:04:48;24.40;95.90
39889;DHT22;25563;50.844;4.308;2022-08-19T11:07:15;24.50;95.70
39889;DHT22;25563;50.844;4.308;2022-08-19T11:09:42;24.80;95.40
39889;DHT22;25563;50.844;4.308;2022-08-19T11:12:08;25.20;94.50
39889;DHT22;25563;50.844;4.308;2022-08-19T11:14:36;25.40;94.20
39889;DHT22;25563;50.844;4.308;2022-08-19T11:17:04;25.70;93.70
39889;DHT22;25563;50.844;4.308;2022-08-19T11:19:33;26.10;92.90
39889;DHT22;25563;50.844;4.308;2022-08-19T11:21:59;26.10;92.60
39889;DHT22;25563;50.844;4.308;2022-08-19T11:24:27;26.00;92.70
39889;DHT22;25563;50.844;4.308;2022-08-19T11:27:02;25.60;92.90
39889;DHT22;25563;50.844;4.308;2022-08-19T11:29:33;25.40;93.20
39889;DHT22;25563;50.844;4.308;2022-08-19T11:32:06;25.20;93.50
39889;DHT22;25563;50.844;4.308;2022-08-19T11:34:33;25.20;93.80
39889;DHT22;25563;50.844;4.308;2022-08-19T11:37:01;25.20;93.90
39889;DHT22;25563;50.844;4.308;2022-08-19T11:39:30;25.20;93.90
39889;DHT22;25563;50.844;4.308;2022-08-19T11:41:58;25.50;93.60
39889;DHT22;25563;50.844;4.308;2022-08-19T11:44:24;25.70;92.90
39889;DHT22;25563;50.844;4.308;2022-08-19T11:46:51;25.90;92.80
39889;DHT22;25563;50.844;4.308;2022-08-19T11:49:19;26.20;92.30
39889;DHT22;25563;50.844;4.308;2022-08-19T11:51:46;26.50;91.90
39889;DHT22;25563;50.844;4.308;2022-08-19T11:54:13;26.40;91.30
39889;DHT22;25563;50.844;4.308;2022-08-19T11:56:40;27.00;91.30
39889;DHT22;25563;50.844;4.308;2022-08-19T11:59:07;27.30;90.50
39889;DHT22;25563;50.844;4.308;2022-08-19T12:01:33;27.60;90.10
39889;DHT22;25563;50.844;4.308;2022-08-19T12:04:00;27.60;88.30
39889;DHT22;25563;50.844;4.308;2022-08-19T12:06:28;28.00;87.80
39889;DHT22;25563;50.844;4.308;2022-08-19T12:08:56;28.20;87.30
39889;DHT22;25563;50.844;4.308;2022-08-19T12:11:23;28.50;85.30
39889;DHT22;25563;50.844;4.308;2022-08-19T12:13:51;28.50;85.00
39889;DHT22;25563;50.844;4.308;2022-08-19T12:16:20;28.60;84.90
39889;DHT22;25563;50.844;4.308;2022-08-19T12:18:49;28.50;84.50
39889;DHT22;25563;50.844;4.308;2022-08-19T12:21:21;28.20;84.20
39889;DHT22;25563;50.844;4.308;2022-08-19T12:23:50;28.20;84.20
39889;DHT22;25563;50.844;4.308;2022-08-19T12:26:18;28.20;84.10
39889;DHT22;25563;50.844;4.308;2022-08-19T12:28:47;28.20;84.30
39889;DHT22;25563;50.844;4.308;2022-08-19T12:31:14;28.20;83.40
39889;DHT22;25563;50.844;4.308;2022-08-19T12:33:46;28.20;83.40
39889;DHT22;25563;50.844;4.308;2022-08-19T12:36:15;27.90;83.30
39889;DHT22;25563;50.844;4.308;2022-08-19T12:38:44;28.30;83.80
39889;DHT22;25563;50.844;4.308;2022-08-19T12:41:15;28.70;83.10
39889;DHT22;25563;50.844;4.308;2022-08-19T12:43:44;28.90;81.40
39889;DHT22;25563;50.844;4.308;2022-08-19T12:46:11;29.20;80.10
39889;DHT22;25563;50.844;4.308;2022-08-19T12:48:39;29.60;79.10
39889;DHT22;25563;50.844;4.308;2022-08-19T12:51:23;29.50;77.20
39889;DHT22;25563;50.844;4.308;2022-08-19T12:53:53;30.40;76.30
39889;DHT22;25563;50.844;4.308;2022-08-19T12:56:20;31.50;74.10
39889;DHT22;25563;50.844;4.308;2022-08-19T12:58:46;33.50;68.90
39889;DHT22;25563;50.844;4.308;2022-08-19T13:01:18;33.30;67.90
39889;DHT22;25563;50.844;4.308;2022-08-19T13:03:53;33.00;68.00
39889;DHT22;25563;50.844;4.308;2022-08-19T13:06:21;31.80;69.00
39889;DHT22;25563;50.844;4.308;2022-08-19T13:08:48;30.90;69.50
39889;DHT22;25563;50.844;4.308;2022-08-19T13:11:17;30.60;71.00
39889;DHT22;25563;50.844;4.308;2022-08-19T13:13:46;30.00;72.60
39889;DHT22;25563;50.844;4.308;2022-08-19T13:16:12;29.40;73.90
39889;DHT22;25563;50.844;4.308;2022-08-19T13:18:40;29.10;74.70
39889;DHT22;25563;50.844;4.308;2022-08-19T13:21:08;28.90;75.30
39889;DHT22;25563;50.844;4.308;2022-08-19T13:23:35;28.80;75.80
39889;DHT22;25563;50.844;4.308;2022-08-19T13:26:04;28.70;76.50
39889;DHT22;25563;50.844;4.308;2022-08-19T13:28:30;28.70;76.80
39889;DHT22;25563;50.844;4.308;2022-08-19T13:31:18;29.20;76.20
39889;DHT22;25563;50.844;4.308;2022-08-19T13:34:03;30.10;74.40
39889;DHT22;25563;50.844;4.308;2022-08-19T13:36:30;30.30;73.10
39889;DHT22;25563;50.844;4.308;2022-08-19T13:38:56;30.50;72.40
39889;DHT22;25563;50.844;4.308;2022-08-19T13:41:23;30.50;72.20
39889;DHT22;25563;50.844;4.308;2022-08-19T13:43:49;29.80;73.40
39889;DHT22;25563;50.844;4.308;2022-08-19T13:46:15;29.20;75.00
39889;DHT22;25563;50.844;4.308;2022-08-19T13:48:40;28.90;75.50
39889;DHT22;25563;50.844;4.308;2022-08-19T13:51:07;28.70;76.40
39889;DHT22;25563;50.844;4.308;2022-08-19T13:53:36;28.50;76.60
39889;DHT22;25563;50.844;4.308;2022-08-19T13:56:07;28.20;77.80
39889;DHT22;25563;50.844;4.308;2022-08-19T13:58:33;27.80;78.60
39889;DHT22;25563;50.844;4.308;2022-08-19T14:00:59;27.50;80.30
39889;DHT22;25563;50.844;4.308;2022-08-19T14:03:26;27.20;81.40
39889;DHT22;25563;50.844;4.308;2022-08-19T14:05:52;26.80;83.00
39889;DHT22;25563;50.844;4.308;2022-08-19T14:08:20;26.40;86.30
39889;DHT22;25563;50.844;4.308;2022-08-19T14:10:47;25.60;90.70
39889;DHT22;25563;50.844;4.308;2022-08-19T14:13:16;25.00;92.80
39889;DHT22;25563;50.844;4.308;2022-08-19T14:15:42;24.80;94.60
39889;DHT22;25563;50.844;4.308;2022-08-19T14:18:11;24.80;95.30
39889;DHT22;25563;50.844;4.308;2022-08-19T14:20:37;24.90;95.10
39889;DHT22;25563;50.844;4.308;2022-08-19T14:23:03;25.10;94.90
39889;DHT22;25563;50.844;4.308;2022-08-19T14:25:31;25.10;94.70
39889;DHT22;25563;50.844;4.308;2022-08-19T14:27:58;25.20;94.60
39889;DHT22;25563;50.844;4.308;2022-08-19T14:30:29;25.20;94.40
39889;DHT22;25563;50.844;4.308;2022-08-19T14:32:57;25.10;94.70
39889;DHT22;25563;50.844;4.308;2022-08-19T14:35:25;25.10;95.10
39889;DHT22;25563;50.844;4.308;2022-08-19T14:37:54;24.70;96.60
39889;DHT22;25563;50.844;4.308;2022-08-19T14:40:23;24.20;98.40
39889;DHT22;25563;50.844;4.308;2022-08-19T14:43:01;24.00;99.60
39889;DHT22;25563;50.844;4.308;2022-08-19T14:45:33;23.70;99.80
39889;DHT22;25563;50.844;4.308;2022-08-19T14:47:59;23.60;99.90
39889;DHT22;25563;50.844;4.308;2022-08-19T14:50:26;23.70;99.90
39889;DHT22;25563;50.844;4.308;2022-08-19T14:52:59;24.20;99.90
39889;DHT22;25563;50.844;4.308;2022-08-19T14:55:25;25.40;98.90
39889;DHT22;25563;50.844;4.308;2022-08-19T14:57:52;27.30;96.50
39889;DHT22;25563;50.844;4.308;2022-08-19T15:00:17;28.10;94.20
39889;DHT22;25563;50.844;4.308;2022-08-19T15:02:43;29.90;92.10
39889;DHT22;25563;50.844;4.308;2022-08-19T15:05:12;31.00;87.10
39889;DHT22;25563;50.844;4.308;2022-08-19T15:07:38;31.40;85.10
39889;DHT22;25563;50.844;4.308;2022-08-19T15:10:09;31.20;83.90
39889;DHT22;25563;50.844;4.308;2022-08-19T15:12:35;33.50;80.00
39889;DHT22;25563;50.844;4.308;2022-08-19T15:15:02;33.90;75.90
39889;DHT22;25563;50.844;4.308;2022-08-19T15:17:28;32.60;75.10
39889;DHT22;25563;50.844;4.308;2022-08-19T15:19:56;31.50;75.90
39889;DHT22;25563;50.844;4.308;2022-08-19T15:22:21;30.50;78.40
39889;DHT22;25563;50.844;4.308;2022-08-19T15:24:50;30.00;80.50
39889;DHT22;25563;50.844;4.308;2022-08-19T15:27:16;29.50;81.30
39889;DHT22;25563;50.844;4.308;2022-08-19T15:29:42;29.20;81.80
39889;DHT22;25563;50.844;4.308;2022-08-19T15:32:12;28.70;83.20
39889;DHT22;25563;50.844;4.308;2022-08-19T15:34:38;28.40;84.60
39889;DHT22;25563;50.844;4.308;2022-08-19T15:37:04;28.00;84.70
39889;DHT22;25563;50.844;4.308;2022-08-19T15:39:31;27.80;86.00
39889;DHT22;25563;50.844;4.308;2022-08-19T15:41:57;27.50;87.50
39889;DHT22;25563;50.844;4.308;2022-08-19T15:44:28;27.20;89.00
39889;DHT22;25563;50.844;4.308;2022-08-19T15:46:54;26.70;90.70
39889;DHT22;25563;50.844;4.308;2022-08-19T15:49:20;26.10;92.20
39889;DHT22;25563;50.844;4.308;2022-08-19T15:51:49;25.70;93.40